Terminal Aerodrome Forecast
Issued by NWS

Home | Current Version | Previous Version | Text Only | Print | Product List | Glossary On
Versions: 1 2 3 4 5 6 7 8 9 10 11 12 13 14 15 16 17 18 19 20 21 22 23 24 25 26 27 28
205
FTUS43 KIND 292320
TAFBMG
TAF
KBMG 292320Z 3000/3024 09011KT P6SM BKN100
     FM300800 10009KT P6SM VCTS OVC070CB
     FM301200 12009KT P6SM SHRA VCTS OVC060CB
     FM301600 15011KT P6SM SHRA VCTS OVC035CB
     FM301800 17011KT P6SM -SHRA VCTS OVC035CB
      AMD LTD TO CLD VIS AND WIND 3001/3013=

USA.gov is the U.S. government's official web portal to all federal, state and local government web resources and services.